Time;durP1;ratioP1;P1;durP2;ratioP2;P2;SDS_P1;SDS_P2;PMS_P1;PMS_P2;Temp;Humidity;BMP_temperature;BMP_pressure;BME280_temperature;BME280_humidity;BME280_pressure;Samples;Min_cycle;Max_cycle;Signal;HPM_P1;HPM_P2
2022/04/22 00:00:58;;;;;;;2.53;2.33;;;;;;;;;;5026164;28;20215;-60
2022/04/22 00:03:26;;;;;;;2.77;2.13;;;;;;;;;;5029867;28;20271;-60
2022/04/22 00:05:53;;;;;;;2.83;2.10;;;;;;;;;;5028697;28;20241;-60
2022/04/22 00:08:22;;;;;;;2.30;2.10;;;;;;;;;;5027535;28;20625;-60
2022/04/22 00:13:35;;;;;;;3.00;2.50;;;;;;;;;;5033941;28;20234;-60
2022/04/22 00:16:02;;;;;;;2.43;2.10;;;;;;;;;;5027829;28;20223;-60
2022/04/22 00:18:31;;;;;;;3.20;2.60;;;;;;;;;;5027648;28;20539;-61
2022/04/22 00:20:59;;;;;;;2.67;2.47;;;;;;;;;;5027790;28;20195;-60
2022/04/22 00:23:27;;;;;;;3.33;2.73;;;;;;;;;;5022631;28;20203;-60
2022/04/22 00:25:55;;;;;;;2.60;2.30;;;;;;;;;;5027604;28;20274;-60
2022/04/22 00:28:22;;;;;;;2.73;2.53;;;;;;;;;;5027800;28;20203;-60
2022/04/22 00:30:49;;;;;;;2.57;2.13;;;;;;;;;;5027709;28;20211;-60
2022/04/22 00:33:16;;;;;;;3.67;2.30;;;;;;;;;;5029808;28;20747;-60
2022/04/22 00:35:44;;;;;;;2.47;2.17;;;;;;;;;;5024511;28;20301;-60
2022/04/22 00:38:11;;;;;;;2.57;2.27;;;;;;;;;;5058055;28;20218;-60
2022/04/22 00:40:38;;;;;;;3.93;2.40;;;;;;;;;;5027810;28;20211;-60
2022/04/22 00:43:21;;;;;;;3.23;2.33;;;;;;;;;;5032449;28;20280;-60
2022/04/22 00:45:49;;;;;;;2.80;2.47;;;;;;;;;;5028475;28;20645;-60
2022/04/22 00:48:17;;;;;;;2.67;2.47;;;;;;;;;;5024251;28;20203;-60
2022/04/22 00:50:44;;;;;;;2.50;2.30;;;;;;;;;;5028399;28;20199;-60
2022/04/22 00:53:12;;;;;;;2.87;2.37;;;;;;;;;;5024590;28;20237;-60
2022/04/22 00:55:40;;;;;;;2.87;2.57;;;;;;;;;;5026383;28;20223;-60
2022/04/22 00:58:08;;;;;;;2.90;2.70;;;;;;;;;;5022627;28;20274;-60
2022/04/22 01:00:35;;;;;;;2.97;2.50;;;;;;;;;;5024767;28;20215;-60
2022/04/22 01:03:04;;;;;;;2.30;2.10;;;;;;;;;;5031652;28;20635;-60
2022/04/22 01:11:02;;;;;;;2.30;2.10;;;;;;;;;;5033366;28;20273;-60
2022/04/22 01:13:29;;;;;;;4.23;2.83;;;;;;;;;;5030342;28;20218;-60
2022/04/22 01:15:57;;;;;;;2.70;2.50;;;;;;;;;;5027502;28;20514;-60
2022/04/22 01:18:24;;;;;;;2.83;2.63;;;;;;;;;;5027110;28;20207;-61
2022/04/22 01:20:51;;;;;;;3.17;2.30;;;;;;;;;;5026369;28;20644;-60
2022/04/22 01:23:18;;;;;;;2.67;2.43;;;;;;;;;;5053172;28;20202;-60
2022/04/22 01:25:45;;;;;;;2.50;2.30;;;;;;;;;;5026914;28;20691;-60
2022/04/22 01:28:13;;;;;;;2.63;2.43;;;;;;;;;;5026516;28;20593;-60
2022/04/22 01:30:41;;;;;;;2.90;2.70;;;;;;;;;;5026088;28;20207;-60
2022/04/22 01:33:08;;;;;;;3.03;2.70;;;;;;;;;;5029960;28;20214;-60
2022/04/22 01:35:35;;;;;;;3.20;2.60;;;;;;;;;;5024777;28;20872;-60
2022/04/22 01:38:02;;;;;;;3.43;2.53;;;;;;;;;;5026684;28;20203;-61
2022/04/22 01:40:29;;;;;;;3.00;2.50;;;;;;;;;;5030974;28;20203;-61
2022/04/22 01:42:56;;;;;;;3.47;2.97;;;;;;;;;;5029637;28;20194;-60
2022/04/22 01:45:23;;;;;;;3.00;2.70;;;;;;;;;;5023990;28;20281;-61
2022/04/22 01:47:50;;;;;;;2.80;2.50;;;;;;;;;;5024937;28;20268;-60
2022/04/22 01:50:18;;;;;;;2.80;2.50;;;;;;;;;;5026227;28;20191;-60
2022/04/22 01:52:45;;;;;;;2.80;2.43;;;;;;;;;;5025332;28;20230;-60
2022/04/22 01:55:12;;;;;;;2.30;2.10;;;;;;;;;;5031747;28;20219;-60
2022/04/22 01:57:39;;;;;;;3.13;2.33;;;;;;;;;;5026049;28;20183;-60
2022/04/22 02:00:07;;;;;;;3.07;2.30;;;;;;;;;;5023904;28;20265;-60
2022/04/22 02:02:35;;;;;;;2.43;2.23;;;;;;;;;;5015195;28;20257;-60
2022/04/22 02:05:03;;;;;;;2.60;2.40;;;;;;;;;;5028590;28;20199;-60
2022/04/22 02:07:30;;;;;;;2.30;2.10;;;;;;;;;;5022678;28;20195;-61
2022/04/22 02:09:58;;;;;;;2.10;1.90;;;;;;;;;;5025671;28;20706;-60
2022/04/22 02:12:25;;;;;;;3.13;2.10;;;;;;;;;;5023887;28;20219;-60
2022/04/22 02:14:52;;;;;;;2.40;2.10;;;;;;;;;;5031699;28;20217;-60
2022/04/22 02:17:19;;;;;;;2.40;2.20;;;;;;;;;;5055539;28;20628;-60
2022/04/22 02:19:46;;;;;;;3.10;2.50;;;;;;;;;;5026179;28;20187;-60
2022/04/22 02:22:14;;;;;;;3.20;2.60;;;;;;;;;;5026071;28;20675;-60
2022/04/22 02:24:41;;;;;;;2.40;2.20;;;;;;;;;;5023097;28;20238;-60
2022/04/22 02:29:54;;;;;;;2.90;2.60;;;;;;;;;;5026411;28;20623;-60
2022/04/22 02:32:21;;;;;;;2.80;2.50;;;;;;;;;;5025734;28;20691;-60
2022/04/22 02:34:48;;;;;;;3.00;2.20;;;;;;;;;;5026270;28;20316;-60
2022/04/22 02:37:16;;;;;;;3.40;2.23;;;;;;;;;;5020222;28;20227;-60
2022/04/22 02:39:43;;;;;;;2.87;2.60;;;;;;;;;;5025060;28;20205;-60
2022/04/22 02:47:42;;;;;;;2.67;2.10;;;;;;;;;;5024545;28;20218;-60
2022/04/22 02:50:09;;;;;;;2.57;2.37;;;;;;;;;;5026186;28;20206;-60
2022/04/22 02:52:37;;;;;;;2.37;2.17;;;;;;;;;;5022656;28;20250;-60
2022/04/22 02:55:04;;;;;;;2.90;2.60;;;;;;;;;;5024908;28;20202;-60
2022/04/22 02:57:31;;;;;;;4.27;2.23;;;;;;;;;;5023036;28;20470;-60
2022/04/22 02:59:58;;;;;;;2.63;2.20;;;;;;;;;;5023546;28;20679;-60
2022/04/22 03:02:25;;;;;;;1.90;1.80;;;;;;;;;;5025214;28;20314;-60
2022/04/22 03:04:53;;;;;;;2.57;2.37;;;;;;;;;;5029798;28;20253;-60
2022/04/22 03:07:20;;;;;;;2.30;2.10;;;;;;;;;;5027856;28;20268;-60
2022/04/22 03:09:48;;;;;;;2.00;1.90;;;;;;;;;;5025152;28;20830;-60
2022/04/22 03:12:15;;;;;;;2.60;2.40;;;;;;;;;;5023019;28;20219;-60
2022/04/22 03:14:44;;;;;;;2.33;2.13;;;;;;;;;;5033004;28;20206;-60
2022/04/22 03:17:11;;;;;;;2.57;2.37;;;;;;;;;;5019682;28;20215;-60
2022/04/22 03:19:39;;;;;;;2.47;2.27;;;;;;;;;;5025204;28;20237;-60
2022/04/22 03:22:07;;;;;;;2.93;2.40;;;;;;;;;;5025850;28;20331;-60
2022/04/22 03:24:34;;;;;;;2.40;2.10;;;;;;;;;;5022469;28;20292;-60
2022/04/22 03:27:02;;;;;;;2.00;1.90;;;;;;;;;;5018338;28;20357;-60
2022/04/22 03:29:29;;;;;;;2.80;2.50;;;;;;;;;;5022749;28;20220;-60
2022/04/22 03:31:56;;;;;;;2.20;2.00;;;;;;;;;;5025157;28;20280;-61
2022/04/22 03:34:23;;;;;;;2.43;2.00;;;;;;;;;;5030728;28;20203;-60
2022/04/22 03:36:50;;;;;;;2.93;2.67;;;;;;;;;;5025830;28;20238;-60
2022/04/22 03:39:17;;;;;;;3.80;2.83;;;;;;;;;;5027704;28;20203;-60
2022/04/22 03:41:44;;;;;;;3.60;3.30;;;;;;;;;;5029227;28;20216;-60
2022/04/22 03:44:11;;;;;;;3.30;3.00;;;;;;;;;;5037165;28;20885;-61
2022/04/22 03:46:39;;;;;;;3.97;3.10;;;;;;;;;;5020629;28;20207;-61
2022/04/22 03:49:06;;;;;;;4.10;3.20;;;;;;;;;;5024601;28;20210;-60
2022/04/22 03:51:33;;;;;;;3.40;3.10;;;;;;;;;;5028832;28;20246;-60
2022/04/22 03:54:01;;;;;;;3.63;3.33;;;;;;;;;;5028664;28;20257;-60
2022/04/22 03:59:14;;;;;;;3.57;3.27;;;;;;;;;;5023677;28;20203;-61
2022/04/22 04:01:43;;;;;;;3.47;2.83;;;;;;;;;;5027329;28;20207;-60
2022/04/22 04:04:11;;;;;;;3.10;2.80;;;;;;;;;;5029347;28;20302;-60
2022/04/22 04:06:38;;;;;;;3.67;3.07;;;;;;;;;;5023915;28;20261;-60
2022/04/22 04:17:36;;;;;;;3.27;2.97;;;;;;;;;;5027837;28;20235;-60
2022/04/22 04:23:22;;;;;;;3.33;3.03;;;;;;;;;;5023645;28;20625;-61
2022/04/22 04:25:59;;;;;;;3.30;2.90;;;;;;;;;;5049414;28;20234;-60
2022/04/22 04:28:29;;;;;;;3.30;3.00;;;;;;;;;;5029414;28;20629;-61
2022/04/22 04:30:56;;;;;;;3.53;3.23;;;;;;;;;;5028289;28;20195;-62
2022/04/22 04:33:23;;;;;;;3.23;2.93;;;;;;;;;;5029566;28;20546;-62
2022/04/22 04:35:50;;;;;;;4.13;3.57;;;;;;;;;;5025262;28;20234;-61
2022/04/22 04:38:18;;;;;;;3.43;3.13;;;;;;;;;;5023103;28;20191;-62
2022/04/22 04:40:45;;;;;;;4.03;3.57;;;;;;;;;;5022217;28;20199;-61
2022/04/22 04:43:12;;;;;;;3.37;3.03;;;;;;;;;;5030345;28;20195;-61
2022/04/22 04:45:40;;;;;;;5.07;3.50;;;;;;;;;;5030485;28;20593;-62
2022/04/22 04:48:07;;;;;;;3.20;2.90;;;;;;;;;;5025818;28;20226;-62
2022/04/22 04:50:34;;;;;;;3.60;3.30;;;;;;;;;;5028858;28;20217;-61
2022/04/22 04:53:02;;;;;;;4.60;3.60;;;;;;;;;;5027414;28;20284;-61
2022/04/22 04:55:29;;;;;;;3.87;3.50;;;;;;;;;;5025137;28;20199;-61
2022/04/22 04:57:56;;;;;;;4.57;3.83;;;;;;;;;;5027588;28;20257;-62
2022/04/22 05:00:23;;;;;;;4.37;3.97;;;;;;;;;;5023494;28;20230;-62
2022/04/22 05:02:50;;;;;;;5.23;4.70;;;;;;;;;;5029187;28;20195;-62
2022/04/22 05:05:17;;;;;;;4.27;3.87;;;;;;;;;;5026636;28;20199;-61
2022/04/22 05:07:48;;;;;;;4.90;4.40;;;;;;;;;;5024606;28;20203;-62
2022/04/22 05:10:16;;;;;;;5.27;4.50;;;;;;;;;;5026946;28;20218;-62
2022/04/22 05:12:43;;;;;;;5.07;4.57;;;;;;;;;;5025098;28;20664;-61
2022/04/22 05:15:11;;;;;;;5.27;3.97;;;;;;;;;;5019037;28;20203;-62
2022/04/22 05:17:41;;;;;;;4.93;4.43;;;;;;;;;;5015189;28;20553;-62
2022/04/22 05:20:09;;;;;;;5.83;4.73;;;;;;;;;;5029099;28;20202;-62
2022/04/22 05:22:37;;;;;;;5.00;4.50;;;;;;;;;;5029231;28;20700;-61
2022/04/22 05:25:04;;;;;;;5.20;4.70;;;;;;;;;;5015297;28;20204;-62
2022/04/22 05:27:32;;;;;;;6.10;5.07;;;;;;;;;;5023103;28;20195;-61
2022/04/22 05:32:48;;;;;;;6.53;5.40;;;;;;;;;;5022727;28;20279;-61
2022/04/22 05:35:16;;;;;;;6.80;5.73;;;;;;;;;;5018657;28;20218;-61
2022/04/22 05:37:50;;;;;;;6.20;5.60;;;;;;;;;;5027109;28;20285;-61
2022/04/22 05:40:22;;;;;;;5.30;4.80;;;;;;;;;;5027350;28;20199;-62
2022/04/22 05:42:49;;;;;;;4.77;4.30;;;;;;;;;;5026910;28;20733;-62
2022/04/22 05:45:17;;;;;;;5.67;5.07;;;;;;;;;;5029420;28;20209;-61
2022/04/22 05:47:45;;;;;;;7.30;6.07;;;;;;;;;;5022584;28;20207;-61
2022/04/22 05:50:12;;;;;;;7.33;6.57;;;;;;;;;;5023111;28;20195;-61
2022/04/22 05:52:40;;;;;;;9.77;7.13;;;;;;;;;;5022027;28;20227;-62
2022/04/22 05:55:09;;;;;;;10.53;7.63;;;;;;;;;;5025937;28;20549;-61
2022/04/22 05:57:36;;;;;;;13.27;7.30;;;;;;;;;;5051036;28;20210;-62
2022/04/22 06:00:05;;;;;;;11.33;7.10;;;;;;;;;;5023537;28;20214;-61
2022/04/22 06:02:32;;;;;;;9.83;6.83;;;;;;;;;;5019879;28;20207;-62
2022/04/22 06:05:00;;;;;;;12.77;7.03;;;;;;;;;;5026766;28;20207;-61
2022/04/22 06:07:27;;;;;;;11.23;7.17;;;;;;;;;;5024928;28;20688;-62
2022/04/22 06:12:40;;;;;;;9.70;7.90;;;;;;;;;;5022953;28;20860;-61
2022/04/22 06:15:08;;;;;;;11.90;8.40;;;;;;;;;;5026195;28;20219;-61
2022/04/22 06:17:35;;;;;;;13.27;8.53;;;;;;;;;;5023779;28;20812;-61
2022/04/22 06:20:02;;;;;;;11.87;7.77;;;;;;;;;;5025875;28;20269;-61
2022/04/22 06:22:31;;;;;;;10.53;6.90;;;;;;;;;;5026690;28;20567;-61
2022/04/22 06:24:59;;;;;;;8.53;7.10;;;;;;;;;;5029630;28;20227;-61
2022/04/22 06:27:34;;;;;;;11.97;7.60;;;;;;;;;;5023837;28;20225;-61
2022/04/22 06:30:05;;;;;;;9.57;7.20;;;;;;;;;;5026541;28;20236;-61
2022/04/22 06:32:32;;;;;;;9.57;6.87;;;;;;;;;;5025653;28;20217;-61
2022/04/22 06:34:59;;;;;;;26.83;12.43;;;;;;;;;;5028943;28;20206;-62
2022/04/22 06:37:29;;;;;;;24.93;12.37;;;;;;;;;;5021825;28;20226;-62
2022/04/22 06:45:46;;;;;;;21.07;10.80;;;;;;;;;;5022893;28;20949;-62
2022/04/22 06:48:18;;;;;;;19.87;11.20;;;;;;;;;;5022671;28;20217;-62
2022/04/22 06:51:08;;;;;;;17.80;10.60;;;;;;;;;;5025604;28;20203;-62
2022/04/22 06:53:36;;;;;;;17.63;9.93;;;;;;;;;;5024809;28;20218;-62
2022/04/22 06:56:06;;;;;;;14.57;9.87;;;;;;;;;;5024883;28;20194;-62
2022/04/22 06:58:37;;;;;;;15.13;8.60;;;;;;;;;;5032798;28;20751;-62
2022/04/22 07:01:04;;;;;;;11.50;8.63;;;;;;;;;;5023282;28;20676;-63
2022/04/22 07:03:52;;;;;;;13.40;9.00;;;;;;;;;;5030245;28;20824;-62
2022/04/22 07:06:19;;;;;;;9.67;7.83;;;;;;;;;;5025134;28;20206;-62
2022/04/22 07:08:46;;;;;;;11.30;8.60;;;;;;;;;;5027092;28;20833;-62
2022/04/22 07:11:17;;;;;;;13.00;8.53;;;;;;;;;;5023805;28;20191;-64
2022/04/22 07:13:44;;;;;;;15.40;8.43;;;;;;;;;;5023693;28;20199;-63
2022/04/22 07:16:12;;;;;;;12.83;8.80;;;;;;;;;;5022925;28;20270;-63
2022/04/22 07:18:41;;;;;;;9.30;8.17;;;;;;;;;;5026848;28;20199;-63
2022/04/22 07:21:08;;;;;;;10.10;8.27;;;;;;;;;;5025580;28;20304;-63
2022/04/22 07:23:38;;;;;;;12.33;9.27;;;;;;;;;;5022008;28;20199;-63
2022/04/22 07:26:11;;;;;;;9.93;8.37;;;;;;;;;;5019807;28;20297;-64
2022/04/22 07:28:40;;;;;;;10.80;8.07;;;;;;;;;;5022384;28;20213;-63
2022/04/22 07:31:12;;;;;;;10.45;9.27;;;;;;;;;;5020729;28;20466;-65
2022/04/22 07:33:40;;;;;;;10.00;8.47;;;;;;;;;;5026992;28;20219;-67
2022/04/22 07:36:09;;;;;;;11.57;8.87;;;;;;;;;;5024302;28;20302;-66
2022/04/22 07:38:37;;;;;;;9.53;8.53;;;;;;;;;;5025750;28;20207;-66
2022/04/22 07:41:06;;;;;;;8.73;7.70;;;;;;;;;;5027111;28;20191;-64
2022/04/22 07:49:07;;;;;;;12.33;7.03;;;;;;;;;;5024115;28;20288;-64
2022/04/22 07:51:35;;;;;;;7.43;6.73;;;;;;;;;;5025982;28;20237;-64
2022/04/22 07:54:02;;;;;;;8.97;6.67;;;;;;;;;;5025271;28;20246;-64
2022/04/22 07:56:29;;;;;;;8.33;7.40;;;;;;;;;;5026011;28;20580;-64
2022/04/22 07:58:56;;;;;;;7.43;6.73;;;;;;;;;;5025494;28;20195;-67
2022/04/22 08:01:24;;;;;;;7.77;6.47;;;;;;;;;;5021818;28;20199;-65
2022/04/22 08:03:53;;;;;;;7.30;6.23;;;;;;;;;;5025991;28;20786;-65
2022/04/22 08:06:21;;;;;;;7.03;6.33;;;;;;;;;;5025961;28;20222;-66
2022/04/22 08:08:48;;;;;;;7.83;6.47;;;;;;;;;;5025448;28;20199;-66
2022/04/22 08:11:15;;;;;;;7.93;7.23;;;;;;;;;;5022689;28;20195;-66
2022/04/22 08:13:43;;;;;;;9.43;6.80;;;;;;;;;;5027302;28;20199;-66
2022/04/22 08:16:10;;;;;;;7.17;6.47;;;;;;;;;;5026231;28;20204;-66
2022/04/22 08:18:37;;;;;;;7.20;6.50;;;;;;;;;;5026387;28;20273;-67
2022/04/22 08:21:04;;;;;;;6.70;6.00;;;;;;;;;;5025947;28;20195;-65
2022/04/22 08:23:31;;;;;;;8.93;6.63;;;;;;;;;;5022442;28;20210;-66
2022/04/22 08:25:58;;;;;;;6.77;6.17;;;;;;;;;;5027263;28;20203;-62
2022/04/22 08:28:25;;;;;;;7.33;6.50;;;;;;;;;;5025986;28;20609;-63
2022/04/22 08:30:53;;;;;;;9.50;6.60;;;;;;;;;;5026182;28;20257;-65
2022/04/22 08:33:20;;;;;;;7.53;6.83;;;;;;;;;;5024065;28;20880;-66
2022/04/22 08:35:47;;;;;;;9.07;8.27;;;;;;;;;;5023819;28;20809;-66
2022/04/22 08:38:14;;;;;;;8.23;7.30;;;;;;;;;;5025752;28;20746;-66
2022/04/22 08:40:43;;;;;;;8.43;7.63;;;;;;;;;;5026268;28;21281;-65
2022/04/22 08:43:12;;;;;;;8.23;7.43;;;;;;;;;;5018041;28;21639;-65
2022/04/22 08:45:39;;;;;;;7.90;7.20;;;;;;;;;;5028317;28;20214;-64
2022/04/22 08:50:55;;;;;;;7.73;7.03;;;;;;;;;;5025331;28;20504;-66
2022/04/22 08:53:23;;;;;;;6.90;6.30;;;;;;;;;;5023538;28;20321;-66
2022/04/22 08:55:57;;;;;;;6.60;6.00;;;;;;;;;;5024064;28;20211;-66
2022/04/22 08:58:26;;;;;;;6.57;5.80;;;;;;;;;;5026997;28;20305;-65
2022/04/22 09:00:54;;;;;;;6.20;5.60;;;;;;;;;;5023712;28;20660;-66
2022/04/22 09:03:22;;;;;;;8.17;6.60;;;;;;;;;;5022335;28;20515;-66
2022/04/22 09:05:49;;;;;;;7.40;6.70;;;;;;;;;;5025420;28;20284;-66
2022/04/22 09:08:16;;;;;;;7.33;6.63;;;;;;;;;;5055865;28;20281;-66
2022/04/22 09:10:43;;;;;;;7.83;6.67;;;;;;;;;;5025654;28;20514;-64
2022/04/22 09:13:23;;;;;;;7.60;6.07;;;;;;;;;;5020659;28;20214;-66
2022/04/22 09:15:50;;;;;;;6.30;5.70;;;;;;;;;;5023967;28;20211;-67
2022/04/22 09:18:39;;;;;;;5.17;4.73;;;;;;;;;;5024110;28;21272;-67
2022/04/22 09:21:13;;;;;;;5.57;4.93;;;;;;;;;;5024364;28;20207;-66
2022/04/22 09:23:40;;;;;;;5.83;5.30;;;;;;;;;;5021713;28;20207;-66
2022/04/22 09:26:22;;;;;;;7.00;6.40;;;;;;;;;;5025178;28;20734;-64
2022/04/22 09:28:59;;;;;;;5.87;5.37;;;;;;;;;;5024443;28;20191;-63
2022/04/22 09:31:27;;;;;;;6.87;5.53;;;;;;;;;;5020554;28;20194;-64
2022/04/22 09:33:55;;;;;;;6.43;5.87;;;;;;;;;;5025533;28;20191;-63
2022/04/22 09:44:56;;;;;;;7.70;7.00;;;;;;;;;;5023255;28;20198;-62
2022/04/22 09:47:30;;;;;;;8.17;6.00;;;;;;;;;;5020160;28;20277;-62
2022/04/22 09:49:58;;;;;;;7.47;6.20;;;;;;;;;;5023592;28;20739;-63
2022/04/22 09:52:28;;;;;;;6.30;5.77;;;;;;;;;;5001685;28;20235;-64
2022/04/22 09:55:01;;;;;;;5.43;5.00;;;;;;;;;;5020668;28;20198;-64
2022/04/22 09:57:52;;;;;;;5.87;4.70;;;;;;;;;;5022329;28;20215;-63
2022/04/22 10:00:20;;;;;;;4.33;3.93;;;;;;;;;;5016109;28;20627;-64
2022/04/22 10:02:51;;;;;;;4.33;3.93;;;;;;;;;;5022857;28;20276;-66
2022/04/22 10:05:19;;;;;;;4.50;4.13;;;;;;;;;;5019201;28;20206;-63
2022/04/22 10:07:47;;;;;;;5.13;4.63;;;;;;;;;;5022016;28;20191;-63
2022/04/22 10:10:15;;;;;;;4.40;3.70;;;;;;;;;;5018163;28;20203;-63
2022/04/22 10:12:43;;;;;;;4.60;4.03;;;;;;;;;;5021972;28;20310;-63
2022/04/22 10:15:11;;;;;;;4.63;4.00;;;;;;;;;;5022289;28;20751;-63
2022/04/22 10:17:39;;;;;;;3.60;3.30;;;;;;;;;;5023538;28;20268;-63
2022/04/22 10:20:07;;;;;;;4.70;3.50;;;;;;;;;;5023994;28;20203;-63
2022/04/22 10:22:35;;;;;;;3.87;3.47;;;;;;;;;;5024935;28;20238;-63
2022/04/22 10:25:04;;;;;;;5.43;4.07;;;;;;;;;;5021615;28;20312;-63
2022/04/22 10:27:33;;;;;;;3.30;3.00;;;;;;;;;;5021344;28;20203;-64
2022/04/22 10:30:00;;;;;;;3.30;3.00;;;;;;;;;;5022191;28;20210;-63
2022/04/22 10:32:28;;;;;;;3.40;3.10;;;;;;;;;;5024353;28;20308;-63
2022/04/22 10:34:59;;;;;;;3.20;2.90;;;;;;;;;;5024729;28;20202;-63
2022/04/22 10:37:28;;;;;;;3.53;3.23;;;;;;;;;;5020517;28;20986;-63
2022/04/22 10:39:56;;;;;;;3.63;3.33;;;;;;;;;;5023593;28;20629;-63
2022/04/22 10:42:30;;;;;;;3.70;3.40;;;;;;;;;;5020569;28;20541;-64
2022/04/22 10:47:47;;;;;;;3.60;3.30;;;;;;;;;;5002794;28;20429;-64
2022/04/22 10:50:25;;;;;;;5.93;2.90;;;;;;;;;;5006770;28;20254;-64
2022/04/22 10:53:03;;;;;;;2.70;2.50;;;;;;;;;;5010701;28;20231;-64
2022/04/22 10:55:30;;;;;;;2.90;2.60;;;;;;;;;;4993239;28;20199;-63
2022/04/22 10:58:13;;;;;;;2.90;2.70;;;;;;;;;;4992346;28;20281;-65
2022/04/22 11:00:42;;;;;;;2.93;2.73;;;;;;;;;;5002571;28;20215;-66
2022/04/22 11:03:20;;;;;;;4.33;2.83;;;;;;;;;;5004574;28;20199;-66
2022/04/22 11:05:48;;;;;;;3.13;2.87;;;;;;;;;;5006559;28;20203;-66
2022/04/22 11:08:24;;;;;;;3.10;2.60;;;;;;;;;;5005787;28;20203;-67
2022/04/22 11:10:52;;;;;;;4.60;2.80;;;;;;;;;;5006160;28;20217;-67
2022/04/22 11:13:38;;;;;;;5.10;2.97;;;;;;;;;;5003281;28;20766;-67
2022/04/22 11:16:06;;;;;;;2.80;2.43;;;;;;;;;;5004298;28;20242;-65
2022/04/22 11:18:34;;;;;;;2.27;2.10;;;;;;;;;;5003872;28;20270;-66
2022/04/22 11:21:03;;;;;;;2.83;2.63;;;;;;;;;;5004144;28;20207;-65
2022/04/22 11:23:37;;;;;;;2.63;2.40;;;;;;;;;;5002604;28;20219;-66
2022/04/22 11:26:08;;;;;;;3.10;2.80;;;;;;;;;;4995191;28;20699;-67
2022/04/22 11:28:36;;;;;;;2.47;2.27;;;;;;;;;;5005722;28;20202;-65
2022/04/22 11:31:05;;;;;;;2.73;2.53;;;;;;;;;;5008504;28;20269;-67
2022/04/22 11:33:35;;;;;;;2.60;2.33;;;;;;;;;;5008354;28;20192;-65
2022/04/22 11:36:07;;;;;;;2.83;2.53;;;;;;;;;;5006315;28;20615;-65
2022/04/22 11:38:34;;;;;;;3.90;2.47;;;;;;;;;;5010020;28;20212;-64
2022/04/22 11:41:01;;;;;;;3.13;2.70;;;;;;;;;;5006274;28;20863;-65
2022/04/22 11:43:29;;;;;;;2.20;2.10;;;;;;;;;;5003531;28;20200;-67
2022/04/22 11:45:56;;;;;;;3.67;2.90;;;;;;;;;;5006252;28;20854;-62
2022/04/22 11:48:24;;;;;;;2.67;2.47;;;;;;;;;;5001514;28;20212;-62
2022/04/22 11:50:54;;;;;;;3.70;2.90;;;;;;;;;;5003892;28;20219;-63
2022/04/22 11:53:26;;;;;;;3.07;2.77;;;;;;;;;;5000068;28;20236;-66
2022/04/22 11:55:53;;;;;;;3.07;2.60;;;;;;;;;;5004768;28;20199;-66
2022/04/22 11:58:21;;;;;;;4.53;2.17;;;;;;;;;;5007592;28;20988;-66
2022/04/22 12:06:26;;;;;;;4.93;2.63;;;;;;;;;;5006076;28;20195;-66
2022/04/22 12:08:57;;;;;;;2.67;2.47;;;;;;;;;;5005628;28;20203;-64
2022/04/22 12:11:25;;;;;;;5.17;2.67;;;;;;;;;;5004960;28;20211;-63
2022/04/22 12:13:52;;;;;;;2.73;2.50;;;;;;;;;;5004830;28;20624;-63
2022/04/22 12:16:22;;;;;;;3.47;2.97;;;;;;;;;;5006302;28;20246;-64
2022/04/22 12:18:50;;;;;;;2.50;2.30;;;;;;;;;;5005996;28;20223;-64
2022/04/22 12:21:18;;;;;;;2.87;2.67;;;;;;;;;;5005956;28;20634;-66
2022/04/22 12:23:47;;;;;;;2.90;2.70;;;;;;;;;;5008638;28;20215;-66
2022/04/22 12:26:21;;;;;;;2.60;2.40;;;;;;;;;;5020693;28;20630;-65
2022/04/22 12:29:11;;;;;;;2.80;2.60;;;;;;;;;;5007226;28;20248;-65
2022/04/22 12:31:46;;;;;;;3.07;2.77;;;;;;;;;;5006266;28;20195;-62
2022/04/22 12:34:26;;;;;;;3.40;3.03;;;;;;;;;;5005028;28;20202;-62
2022/04/22 12:36:53;;;;;;;3.17;2.93;;;;;;;;;;5003573;28;20224;-64
2022/04/22 12:39:33;;;;;;;3.23;2.60;;;;;;;;;;5006941;28;20755;-66
2022/04/22 12:42:01;;;;;;;2.87;2.40;;;;;;;;;;5007071;28;20245;-66
2022/04/22 12:44:28;;;;;;;3.43;2.43;;;;;;;;;;5004670;28;20199;-66
2022/04/22 12:52:46;;;;;;;3.73;2.50;;;;;;;;;;5005523;28;20256;-64
2022/04/22 12:55:16;;;;;;;2.53;2.33;;;;;;;;;;5002484;28;20203;-66
2022/04/22 12:57:43;;;;;;;2.83;2.63;;;;;;;;;;5000542;28;20200;-65
2022/04/22 13:00:14;;;;;;;2.67;2.43;;;;;;;;;;5003800;28;20208;-66
2022/04/22 13:03:04;;;;;;;2.63;2.43;;;;;;;;;;5006518;28;20190;-66
2022/04/22 13:05:32;;;;;;;2.50;2.30;;;;;;;;;;5002113;28;20188;-66
2022/04/22 13:08:09;;;;;;;3.03;2.60;;;;;;;;;;5007150;28;20223;-66
2022/04/22 13:10:47;;;;;;;4.27;2.53;;;;;;;;;;5004402;28;20206;-65
2022/04/22 13:13:17;;;;;;;3.40;2.60;;;;;;;;;;4999913;28;20223;-66
2022/04/22 13:15:46;;;;;;;2.60;2.40;;;;;;;;;;5004190;28;20208;-66
2022/04/22 13:18:18;;;;;;;4.30;2.77;;;;;;;;;;4993321;28;20226;-66
2022/04/22 13:20:45;;;;;;;2.93;2.67;;;;;;;;;;5004713;28;20196;-65
2022/04/22 13:23:12;;;;;;;4.10;2.20;;;;;;;;;;5000217;28;20208;-64
2022/04/22 13:25:40;;;;;;;2.80;2.50;;;;;;;;;;5005745;28;20203;-65
2022/04/22 13:28:07;;;;;;;2.40;2.20;;;;;;;;;;4993692;28;20230;-66
2022/04/22 13:30:38;;;;;;;3.13;2.57;;;;;;;;;;5004257;28;20270;-64
2022/04/22 13:33:05;;;;;;;2.77;2.20;;;;;;;;;;5003419;28;20200;-64
2022/04/22 13:35:32;;;;;;;2.70;2.20;;;;;;;;;;4997998;28;20252;-65
2022/04/22 13:37:59;;;;;;;2.50;2.30;;;;;;;;;;4994703;28;20739;-65
2022/04/22 13:40:26;;;;;;;2.70;2.47;;;;;;;;;;5008335;28;20204;-66
2022/04/22 13:42:54;;;;;;;2.73;2.53;;;;;;;;;;5003642;28;20195;-66
2022/04/22 13:53:39;;;;;;;2.90;2.63;;;;;;;;;;5005648;28;20242;-64
2022/04/22 13:56:07;;;;;;;2.87;2.67;;;;;;;;;;5004790;28;20192;-64
2022/04/22 13:58:36;;;;;;;3.20;2.90;;;;;;;;;;5005351;28;20426;-64
2022/04/22 14:01:04;;;;;;;2.70;2.50;;;;;;;;;;5000255;28;20215;-65
2022/04/22 14:03:31;;;;;;;2.80;2.60;;;;;;;;;;5002312;28;20188;-65
2022/04/22 14:05:58;;;;;;;2.53;2.33;;;;;;;;;;5003812;28;20192;-64
2022/04/22 14:08:26;;;;;;;3.93;2.43;;;;;;;;;;5004057;28;20202;-61
2022/04/22 14:10:53;;;;;;;3.37;2.40;;;;;;;;;;5004483;28;20261;-65
2022/04/22 14:13:20;;;;;;;4.25;3.17;;;;;;;;;;4997300;28;20448;-60
2022/04/22 14:15:47;;;;;;;3.50;3.20;;;;;;;;;;5001982;28;20205;-62
2022/04/22 14:18:14;;;;;;;3.63;3.33;;;;;;;;;;5002116;28;20727;-62
2022/04/22 14:20:42;;;;;;;3.60;3.30;;;;;;;;;;5003416;28;20199;-60
2022/04/22 14:23:10;;;;;;;3.50;3.20;;;;;;;;;;5003997;28;20261;-60
2022/04/22 14:25:37;;;;;;;3.63;3.33;;;;;;;;;;4998243;28;20224;-63
2022/04/22 14:28:04;;;;;;;3.23;2.93;;;;;;;;;;5004496;28;20210;-62
2022/04/22 14:30:32;;;;;;;3.77;3.47;;;;;;;;;;5003669;28;20241;-64
2022/04/22 14:32:59;;;;;;;3.43;3.13;;;;;;;;;;5003761;28;20199;-63
2022/04/22 14:35:27;;;;;;;3.33;3.03;;;;;;;;;;4997380;28;20214;-62
2022/04/22 14:37:55;;;;;;;3.10;2.80;;;;;;;;;;5004334;28;20673;-63
2022/04/22 14:40:26;;;;;;;3.40;3.10;;;;;;;;;;5006241;28;20234;-64
2022/04/22 14:42:54;;;;;;;3.13;2.90;;;;;;;;;;5001028;28;20356;-63
2022/04/22 14:45:21;;;;;;;2.77;2.57;;;;;;;;;;5001523;28;20257;-64
2022/04/22 14:47:53;;;;;;;3.00;2.70;;;;;;;;;;5000913;28;20196;-63
2022/04/22 14:50:21;;;;;;;3.23;2.80;;;;;;;;;;5003650;28;20211;-62
2022/04/22 14:52:49;;;;;;;2.50;2.30;;;;;;;;;;4998473;28;21026;-62
2022/04/22 14:55:16;;;;;;;2.53;2.33;;;;;;;;;;4999282;28;20212;-62
2022/04/22 14:57:43;;;;;;;2.43;2.23;;;;;;;;;;4996131;28;20211;-62
2022/04/22 15:00:11;;;;;;;3.23;2.50;;;;;;;;;;4998599;28;20228;-64
2022/04/22 15:02:41;;;;;;;2.60;2.40;;;;;;;;;;4987549;28;20219;-65
2022/04/22 15:05:08;;;;;;;4.33;2.77;;;;;;;;;;4987811;28;20203;-65
2022/04/22 15:07:36;;;;;;;2.40;2.20;;;;;;;;;;4988906;28;20207;-65
2022/04/22 15:10:05;;;;;;;2.57;2.30;;;;;;;;;;5004951;28;20192;-62
2022/04/22 15:12:32;;;;;;;2.97;2.70;;;;;;;;;;5000245;28;20218;-62
2022/04/22 15:14:59;;;;;;;2.53;2.33;;;;;;;;;;5002133;28;20771;-61
2022/04/22 15:25:44;;;;;;;2.80;2.50;;;;;;;;;;5002333;28;20203;-64
2022/04/22 15:28:12;;;;;;;4.43;2.37;;;;;;;;;;5004199;28;20689;-63
2022/04/22 15:30:58;;;;;;;2.97;2.33;;;;;;;;;;5006395;28;21185;-64
2022/04/22 15:33:25;;;;;;;3.00;2.70;;;;;;;;;;5004966;28;20191;-64
2022/04/22 15:35:52;;;;;;;2.33;2.13;;;;;;;;;;5032920;28;20760;-63
2022/04/22 15:38:22;;;;;;;2.73;2.43;;;;;;;;;;5007544;28;20219;-62
2022/04/22 15:40:50;;;;;;;2.40;2.20;;;;;;;;;;4993762;28;20633;-63
2022/04/22 15:43:20;;;;;;;3.83;3.17;;;;;;;;;;5005481;28;20225;-64
2022/04/22 15:45:47;;;;;;;4.87;3.40;;;;;;;;;;5007641;28;20246;-65
2022/04/22 15:48:17;;;;;;;3.67;3.37;;;;;;;;;;5006489;28;20234;-65
2022/04/22 15:50:48;;;;;;;3.57;2.93;;;;;;;;;;5008237;28;20188;-64
2022/04/22 15:53:15;;;;;;;3.13;2.83;;;;;;;;;;5004942;28;21464;-65
2022/04/22 15:55:48;;;;;;;4.03;2.90;;;;;;;;;;5007071;28;20215;-65
2022/04/22 15:58:22;;;;;;;4.23;3.00;;;;;;;;;;5036949;28;20203;-65
2022/04/22 16:00:52;;;;;;;3.70;2.80;;;;;;;;;;5004752;28;20212;-64
2022/04/22 16:03:19;;;;;;;3.10;2.90;;;;;;;;;;5037449;28;20235;-65
2022/04/22 16:05:49;;;;;;;3.97;3.47;;;;;;;;;;5006924;28;20649;-62
2022/04/22 16:08:17;;;;;;;3.50;3.20;;;;;;;;;;5006107;28;20956;-62
2022/04/22 16:10:44;;;;;;;3.70;2.80;;;;;;;;;;5006974;28;20668;-65
2022/04/22 16:15:57;;;;;;;2.97;2.73;;;;;;;;;;5008039;28;20516;-63
2022/04/22 16:18:25;;;;;;;3.67;2.70;;;;;;;;;;5008407;28;20219;-62
2022/04/22 16:20:53;;;;;;;2.97;2.67;;;;;;;;;;5007164;28;20220;-65
2022/04/22 16:23:21;;;;;;;2.70;2.50;;;;;;;;;;4998558;28;20281;-65